Time;durP1;ratioP1;P1;durP2;ratioP2;P2;SDS_P1;SDS_P2;PMS_P1;PMS_P2;Temp;Humidity;BMP_temperature;BMP_pressure;BME280_temperature;BME280_humidity;BME280_pressure;Samples;Min_cycle;Max_cycle;Signal;HPM_P1;HPM_P2
2022/04/06 00:00:12;;;;;;;32.55;8.73;;;8.00;99.90;;;;;;5047479;28;20040;-70
2022/04/06 00:02:39;;;;;;;27.88;9.60;;;8.00;99.90;;;;;;5064085;28;20437;-70
2022/04/06 00:05:10;;;;;;;25.42;9.15;;;8.00;99.90;;;;;;5047165;28;20045;-69
2022/04/06 00:07:37;;;;;;;32.47;9.43;;;8.00;99.90;;;;;;5050455;28;20033;-70
2022/04/06 00:10:04;;;;;;;28.45;9.30;;;8.00;99.90;;;;;;5056125;28;20107;-70
2022/04/06 00:12:30;;;;;;;26.08;9.55;;;8.00;99.90;;;;;;5032937;28;20040;-70
2022/04/06 00:14:56;;;;;;;40.60;10.65;;;8.00;99.90;;;;;;5055824;28;20048;-70
2022/04/06 00:17:22;;;;;;;30.85;11.00;;;8.00;99.90;;;;;;5046922;28;20079;-70
2022/04/06 00:19:47;;;;;;;32.67;9.68;;;8.00;99.90;;;;;;5065212;28;20113;-70
2022/04/06 00:22:13;;;;;;;29.45;10.80;;;8.00;99.90;;;;;;5065868;28;20337;-70
2022/04/06 00:24:38;;;;;;;31.10;10.90;;;8.00;99.90;;;;;;5063340;28;20041;-70
2022/04/06 00:27:04;;;;;;;34.45;11.20;;;8.00;99.90;;;;;;5052966;28;20477;-70
2022/04/06 00:29:30;;;;;;;28.73;11.23;;;8.00;99.90;;;;;;5058375;28;20052;-70
2022/04/06 00:31:56;;;;;;;29.15;11.65;;;8.00;99.90;;;;;;5068484;28;20048;-70
2022/04/06 00:35:28;;;;;;;29.25;10.85;;;8.00;99.90;;;;;;5064343;28;20097;-70
2022/04/06 00:37:08;;;;;;;34.28;11.52;;;8.30;99.90;;;;;;5062157;28;20521;-70
2022/04/06 00:39:33;;;;;;;36.50;12.65;;;8.00;99.90;;;;;;5050840;28;20048;-70
2022/04/06 00:41:59;;;;;;;33.38;12.05;;;8.00;99.90;;;;;;5060941;28;20055;-70
2022/04/06 00:44:27;;;;;;;32.80;11.43;;;8.00;99.90;;;;;;5061527;28;20109;-70
2022/04/06 00:46:53;;;;;;;36.90;12.68;;;8.10;99.90;;;;;;5069125;28;20071;-70
2022/04/06 00:49:19;;;;;;;35.83;13.18;;;8.10;99.90;;;;;;5055245;28;20044;-70
2022/04/06 00:51:47;;;;;;;34.28;13.40;;;8.00;99.90;;;;;;5061030;28;20059;-70
2022/04/06 00:54:18;;;;;;;34.53;12.27;;;8.00;99.90;;;;;;5059131;28;20049;-69
2022/04/06 00:56:45;;;;;;;37.95;13.65;;;8.10;99.90;;;;;;5065838;28;20045;-70
2022/04/06 00:59:11;;;;;;;38.38;13.55;;;8.10;99.90;;;;;;5066941;28;20071;-70
2022/04/06 01:01:37;;;;;;;34.35;12.98;;;8.10;99.90;;;;;;5054224;28;20497;-70
2022/04/06 01:04:03;;;;;;;34.13;13.05;;;8.10;99.90;;;;;;5040291;28;20072;-70
2022/04/06 01:06:29;;;;;;;31.98;11.82;;;8.10;99.90;;;;;;5059502;28;20041;-70
2022/04/06 01:08:55;;;;;;;31.40;12.18;;;8.10;99.90;;;;;;5059501;28;20255;-69
2022/04/06 01:11:21;;;;;;;33.95;11.82;;;8.10;99.90;;;;;;5037700;28;20036;-70
2022/04/06 01:13:47;;;;;;;38.38;12.57;;;8.10;99.90;;;;;;5060351;28;20044;-69
2022/04/06 01:16:13;;;;;;;33.65;11.60;;;8.00;99.90;;;;;;5052006;28;20041;-70
2022/04/06 01:18:41;;;;;;;31.88;11.63;;;8.10;99.90;;;;;;5063492;28;20043;-71
2022/04/06 01:21:08;;;;;;;34.08;10.95;;;8.00;99.90;;;;;;5063277;28;20048;-69
2022/04/06 01:23:33;;;;;;;35.83;10.93;;;8.40;99.90;;;;;;5037948;28;20067;-69
2022/04/06 01:25:59;;;;;;;27.75;9.60;;;8.10;99.90;;;;;;5052483;28;20030;-69
2022/04/06 01:28:26;;;;;;;24.73;10.02;;;8.50;99.90;;;;;;5058330;28;20049;-70
2022/04/06 01:30:51;;;;;;;28.13;9.20;;;8.10;99.90;;;;;;5059208;28;20044;-70
2022/04/06 01:33:17;;;;;;;25.17;8.55;;;8.10;99.90;;;;;;5063445;28;20043;-69
2022/04/06 01:35:43;;;;;;;27.10;9.05;;;8.10;99.90;;;;;;5067048;28;20048;-69
2022/04/06 01:38:09;;;;;;;23.10;7.75;;;8.10;99.90;;;;;;5062632;28;20040;-69
2022/04/06 01:40:36;;;;;;;23.85;7.18;;;8.10;99.90;;;;;;5067496;28;20094;-79
2022/04/06 01:43:01;;;;;;;22.02;6.43;;;8.10;99.90;;;;;;5064585;28;20400;-79
2022/04/06 01:45:27;;;;;;;27.40;7.05;;;8.10;99.90;;;;;;5065750;28;20032;-79
2022/04/06 01:47:53;;;;;;;23.88;6.30;;;8.20;99.90;;;;;;5049011;28;20044;-78
2022/04/06 01:53:04;;;;;;;18.65;6.03;;;8.20;99.90;;;;;;5065894;28;20416;-70
2022/04/06 01:55:29;;;;;;;21.35;6.13;;;8.20;99.90;;;;;;5063957;28;20048;-69
2022/04/06 01:57:56;;;;;;;26.50;5.88;;;8.20;99.90;;;;;;5059560;28;20040;-69
2022/04/06 02:00:22;;;;;;;23.10;6.47;;;8.20;99.90;;;;;;5064343;28;20051;-69
2022/04/06 02:02:50;;;;;;;25.15;6.30;;;8.30;99.90;;;;;;5058033;28;20037;-69
2022/04/06 02:05:16;;;;;;;17.42;6.32;;;8.20;99.90;;;;;;5045462;28;20129;-69
2022/04/06 02:07:42;;;;;;;18.45;6.13;;;8.20;99.90;;;;;;5067966;28;20043;-69
2022/04/06 02:10:09;;;;;;;17.17;6.35;;;8.30;99.90;;;;;;5067223;28;20507;-69
2022/04/06 02:12:35;;;;;;;25.02;6.20;;;8.30;99.90;;;;;;5059658;28;20138;-69
2022/04/06 02:15:01;;;;;;;22.40;6.00;;;8.30;99.90;;;;;;5063927;28;20040;-69
2022/04/06 02:17:28;;;;;;;15.70;5.68;;;8.30;99.90;;;;;;5065131;28;20052;-69
2022/04/06 02:19:54;;;;;;;25.80;6.70;;;8.30;99.90;;;;;;5063314;28;20478;-69
2022/04/06 02:22:20;;;;;;;23.42;5.72;;;8.30;99.90;;;;;;5065081;28;20047;-68
2022/04/06 02:24:46;;;;;;;14.48;5.28;;;8.30;99.90;;;;;;5064882;28;20040;-69
2022/04/06 02:27:12;;;;;;;18.65;5.85;;;8.20;99.90;;;;;;5044556;28;20084;-69
2022/04/06 02:29:40;;;;;;;17.88;5.70;;;8.30;99.90;;;;;;5060089;28;20471;-69
2022/04/06 02:32:07;;;;;;;18.10;5.15;;;8.30;99.90;;;;;;5062686;28;20464;-69
2022/04/06 02:34:33;;;;;;;16.10;4.82;;;8.30;99.90;;;;;;5059551;28;20040;-69
2022/04/06 02:36:59;;;;;;;15.90;5.18;;;8.40;99.90;;;;;;5059169;28;20084;-69
2022/04/06 02:39:25;;;;;;;10.50;4.07;;;8.20;99.90;;;;;;5041950;28;20056;-68
2022/04/06 02:41:51;;;;;;;14.25;4.20;;;8.30;99.90;;;;;;5061711;28;20052;-69
2022/04/06 02:44:17;;;;;;;13.45;3.60;;;8.20;99.90;;;;;;5066082;28;20416;-69
2022/04/06 02:46:45;;;;;;;11.95;3.85;;;8.20;99.90;;;;;;5063199;28;20417;-69
2022/04/06 02:49:10;;;;;;;16.35;3.70;;;8.20;99.90;;;;;;5049645;28;20416;-69
2022/04/06 02:51:36;;;;;;;14.15;4.10;;;8.20;99.90;;;;;;5039381;28;20052;-69
2022/04/06 02:54:02;;;;;;;14.50;4.03;;;8.20;99.90;;;;;;5058324;28;20127;-69
2022/04/06 02:56:28;;;;;;;12.90;3.28;;;8.20;99.90;;;;;;5063562;28;21398;-69
2022/04/06 02:58:54;;;;;;;15.05;4.25;;;8.20;99.90;;;;;;5053115;28;20402;-69
2022/04/06 03:01:20;;;;;;;14.50;2.70;;;8.20;99.90;;;;;;5066723;28;20496;-69
2022/04/06 03:03:46;;;;;;;10.40;2.83;;;8.20;99.90;;;;;;5066311;28;20119;-69
2022/04/06 03:06:12;;;;;;;11.52;2.92;;;8.20;99.90;;;;;;5064464;28;20127;-69
2022/04/06 03:08:37;;;;;;;12.63;3.00;;;8.20;99.90;;;;;;5057360;28;20048;-69
2022/04/06 03:11:03;;;;;;;12.25;2.78;;;8.20;99.90;;;;;;5063976;28;20044;-69
2022/04/06 03:13:29;;;;;;;12.80;2.97;;;8.20;99.90;;;;;;5092360;28;20097;-69
2022/04/06 03:15:56;;;;;;;12.30;2.90;;;8.20;99.90;;;;;;5062478;28;20091;-69
2022/04/06 03:18:22;;;;;;;12.07;2.70;;;8.20;99.90;;;;;;5058778;28;20041;-69
2022/04/06 03:20:48;;;;;;;13.30;3.08;;;8.20;99.90;;;;;;5063824;28;20373;-69
2022/04/06 03:23:15;;;;;;;14.35;3.10;;;8.10;99.90;;;;;;5064567;28;20060;-69
2022/04/06 03:25:41;;;;;;;12.30;3.65;;;8.20;99.90;;;;;;5046387;28;20043;-70
2022/04/06 03:28:08;;;;;;;12.88;3.00;;;8.20;99.90;;;;;;5062869;28;20059;-70
2022/04/06 03:30:33;;;;;;;13.77;3.40;;;8.10;99.90;;;;;;5065890;28;20044;-69
2022/04/06 03:32:59;;;;;;;12.63;3.35;;;8.20;99.90;;;;;;5061080;28;20409;-69
2022/04/06 03:35:25;;;;;;;14.50;2.85;;;8.20;99.90;;;;;;5081701;28;20036;-69
2022/04/06 03:37:51;;;;;;;12.52;3.25;;;8.20;99.90;;;;;;5059974;28;20037;-69
2022/04/06 03:40:17;;;;;;;14.73;2.80;;;8.20;99.90;;;;;;5050807;28;20041;-69
2022/04/06 03:42:43;;;;;;;18.05;3.42;;;8.20;99.90;;;;;;5059935;28;20076;-69
2022/04/06 03:45:09;;;;;;;14.48;3.38;;;8.20;99.90;;;;;;5063099;28;20048;-69
2022/04/06 03:47:36;;;;;;;15.73;3.72;;;8.20;99.90;;;;;;5062205;28;20080;-70
2022/04/06 03:50:06;;;;;;;17.27;4.20;;;8.20;99.90;;;;;;5089252;28;20394;-69
2022/04/06 03:52:31;;;;;;;16.33;3.55;;;8.20;99.90;;;;;;5043873;28;20040;-69
2022/04/06 03:54:58;;;;;;;18.00;4.72;;;8.20;99.90;;;;;;5060481;28;20036;-69
2022/04/06 03:57:25;;;;;;;15.48;4.82;;;8.20;99.90;;;;;;5050815;28;20052;-70
2022/04/06 03:59:51;;;;;;;19.08;4.47;;;8.10;99.90;;;;;;5046044;28;20048;-69
2022/04/06 04:02:17;;;;;;;20.73;5.20;;;8.20;99.90;;;;;;5068071;28;20504;-70
2022/04/06 04:04:43;;;;;;;20.48;6.00;;;8.10;99.90;;;;;;5068612;28;20094;-70
2022/04/06 04:07:09;;;;;;;19.55;5.97;;;8.10;99.90;;;;;;5067293;28;20045;-70
2022/04/06 04:09:38;;;;;;;18.83;5.88;;;8.10;99.90;;;;;;5069973;28;20580;-70
2022/04/06 04:12:05;;;;;;;27.27;6.15;;;8.10;99.90;;;;;;5068882;28;20072;-70
2022/04/06 04:14:33;;;;;;;18.73;6.20;;;8.10;99.90;;;;;;5049495;28;20101;-70
2022/04/06 04:17:00;;;;;;;26.48;7.78;;;8.10;99.90;;;;;;5067026;28;20112;-70
2022/04/06 04:19:26;;;;;;;25.42;6.75;;;8.00;99.90;;;;;;5065278;28;20094;-70
2022/04/06 04:21:51;;;;;;;21.88;7.00;;;8.00;99.90;;;;;;5060367;28;20068;-69
2022/04/06 04:24:17;;;;;;;20.88;6.43;;;8.00;99.90;;;;;;5053626;28;20413;-69
2022/04/06 04:26:43;;;;;;;19.40;6.90;;;8.00;99.90;;;;;;5067879;28;20067;-70
2022/04/06 04:29:09;;;;;;;18.58;6.40;;;8.00;99.90;;;;;;5047209;28;20047;-69
2022/04/06 04:31:35;;;;;;;24.33;7.78;;;8.00;99.90;;;;;;5057980;28;20041;-70
2022/04/06 04:34:01;;;;;;;26.17;7.68;;;8.00;99.90;;;;;;5062139;28;20036;-69
2022/04/06 04:36:28;;;;;;;22.40;7.45;;;8.00;99.90;;;;;;5065974;28;20412;-70
2022/04/06 04:38:54;;;;;;;25.48;7.78;;;8.00;99.90;;;;;;5064612;28;20455;-70
2022/04/06 04:41:19;;;;;;;29.92;8.30;;;8.00;99.90;;;;;;5060079;28;20517;-69
2022/04/06 04:43:45;;;;;;;24.80;7.88;;;8.00;99.90;;;;;;5042718;28;20074;-69
2022/04/06 04:46:11;;;;;;;24.05;7.82;;;8.00;99.90;;;;;;5063873;28;20044;-70
2022/04/06 04:48:37;;;;;;;23.52;7.00;;;8.00;99.90;;;;;;5069143;28;20055;-70
2022/04/06 04:51:04;;;;;;;26.05;8.20;;;8.50;99.90;;;;;;5046490;28;20055;-69
2022/04/06 04:53:33;;;;;;;22.63;7.70;;;8.00;99.90;;;;;;5061420;28;20097;-79
2022/04/06 04:55:59;;;;;;;25.85;7.95;;;8.00;99.90;;;;;;5064432;28;20052;-79
2022/04/06 04:58:26;;;;;;;27.08;7.38;;;8.00;99.90;;;;;;5059372;28;20039;-79
2022/04/06 05:00:54;;;;;;;26.40;8.73;;;8.00;99.90;;;;;;5060613;28;20101;-79
2022/04/06 05:03:20;;;;;;;23.35;6.82;;;8.00;99.90;;;;;;5065792;28;20044;-79
2022/04/06 05:05:49;;;;;;;28.17;7.18;;;8.00;99.90;;;;;;5061387;28;20040;-79
2022/04/06 05:08:15;;;;;;;27.48;6.90;;;8.00;99.90;;;;;;5064598;28;20098;-80
2022/04/06 05:10:41;;;;;;;22.50;6.65;;;8.00;99.90;;;;;;5059149;28;20206;-78
2022/04/06 05:13:08;;;;;;;19.48;6.90;;;8.00;99.90;;;;;;5058294;28;20107;-79
2022/04/06 05:15:34;;;;;;;25.02;6.60;;;8.00;99.90;;;;;;5064727;28;20051;-79
2022/04/06 05:17:59;;;;;;;22.17;6.03;;;7.90;99.90;;;;;;5065495;28;20040;-80
2022/04/06 05:20:25;;;;;;;27.52;6.18;;;8.00;99.90;;;;;;5051569;28;20051;-79
2022/04/06 05:22:51;;;;;;;30.48;6.93;;;8.00;99.90;;;;;;5066164;28;20045;-80
2022/04/06 05:25:17;;;;;;;25.77;6.28;;;8.00;99.90;;;;;;5077837;28;20101;-79
2022/04/06 05:27:44;;;;;;;18.10;6.15;;;8.00;99.90;;;;;;5086673;28;20542;-79
2022/04/06 05:30:13;;;;;;;26.20;6.35;;;7.90;99.90;;;;;;5054877;28;20074;-69
2022/04/06 05:32:38;;;;;;;25.13;6.10;;;7.90;99.90;;;;;;5048858;28;20509;-69
2022/04/06 05:35:06;;;;;;;19.55;6.38;;;7.90;99.90;;;;;;5048715;28;20493;-70
2022/04/06 05:37:33;;;;;;;24.20;5.90;;;7.90;99.90;;;;;;5053087;28;20036;-79
2022/04/06 05:40:00;;;;;;;28.15;6.25;;;7.90;99.90;;;;;;5052958;28;20076;-78
2022/04/06 05:42:26;;;;;;;20.80;5.60;;;7.90;99.90;;;;;;5037940;28;20048;-78
2022/04/06 05:44:51;;;;;;;25.77;6.43;;;7.90;99.90;;;;;;5053484;28;20516;-81
2022/04/06 05:47:17;;;;;;;17.88;5.80;;;7.90;99.90;;;;;;5044887;28;20588;-79
2022/04/06 05:49:43;;;;;;;25.45;5.85;;;7.90;99.90;;;;;;5053051;28;20466;-79
2022/04/06 05:52:10;;;;;;;23.67;6.95;;;7.80;99.90;;;;;;5045943;28;20051;-78
2022/04/06 05:54:36;;;;;;;20.50;6.05;;;7.90;99.90;;;;;;5076891;28;20106;-79
2022/04/06 05:57:02;;;;;;;25.67;7.05;;;7.80;99.90;;;;;;5057621;28;20099;-79
2022/04/06 05:59:28;;;;;;;28.38;6.80;;;7.90;99.90;;;;;;5030924;28;20076;-78
2022/04/06 06:01:53;;;;;;;34.28;7.18;;;7.80;99.90;;;;;;5038569;28;20159;-79
2022/04/06 06:04:19;;;;;;;26.42;7.68;;;7.80;99.90;;;;;;5060575;28;20454;-79
2022/04/06 06:06:45;;;;;;;17.85;7.22;;;7.80;99.90;;;;;;5040955;28;20037;-79
2022/04/06 06:09:10;;;;;;;21.02;6.57;;;7.80;99.90;;;;;;5046417;28;20047;-79
2022/04/06 06:11:37;;;;;;;26.05;8.00;;;7.80;99.90;;;;;;5075785;28;20039;-78
2022/04/06 06:14:03;;;;;;;23.15;7.03;;;7.80;99.90;;;;;;5058359;28;20044;-79
2022/04/06 06:16:29;;;;;;;28.27;6.80;;;7.80;99.90;;;;;;5076383;28;20036;-78
2022/04/06 06:18:56;;;;;;;25.98;6.93;;;7.80;99.90;;;;;;5079198;28;20679;-80
2022/04/06 06:21:22;;;;;;;24.83;7.13;;;7.90;99.90;;;;;;5069302;28;20068;-78
2022/04/06 06:23:48;;;;;;;19.75;6.93;;;7.90;99.90;;;;;;5070319;28;20036;-79
2022/04/06 06:26:14;;;;;;;20.50;6.15;;;7.90;99.90;;;;;;5067475;28;20064;-78
2022/04/06 06:28:40;;;;;;;20.10;5.80;;;7.90;99.90;;;;;;5063660;28;20047;-79
2022/04/06 06:31:08;;;;;;;31.83;6.03;;;7.90;99.90;;;;;;5072396;28;20396;-79
2022/04/06 06:33:34;;;;;;;25.08;6.07;;;7.90;99.90;;;;;;5078229;28;20044;-79
2022/04/06 06:36:00;;;;;;;19.65;5.82;;;7.90;99.90;;;;;;5078439;28;21499;-78
2022/04/06 06:38:25;;;;;;;15.38;5.03;;;7.90;99.90;;;;;;5080413;28;20039;-74
2022/04/06 06:40:53;;;;;;;15.27;5.30;;;7.90;99.90;;;;;;5073904;28;20127;-74
2022/04/06 06:43:20;;;;;;;19.90;5.88;;;7.90;99.90;;;;;;5064993;28;20130;-74
2022/04/06 06:45:46;;;;;;;19.23;5.72;;;7.90;99.90;;;;;;5074001;28;20039;-74
2022/04/06 06:48:12;;;;;;;21.45;5.65;;;8.20;99.90;;;;;;5075661;28;20052;-75
2022/04/06 06:50:38;;;;;;;18.92;5.75;;;7.90;99.90;;;;;;5063049;28;20461;-76
2022/04/06 06:53:04;;;;;;;20.00;5.07;;;7.90;99.90;;;;;;5068938;28;20044;-72
2022/04/06 06:55:29;;;;;;;15.27;4.18;;;7.90;99.90;;;;;;5054235;28;20512;-73
2022/04/06 06:57:55;;;;;;;18.50;4.90;;;7.90;99.90;;;;;;5070511;28;20053;-73
2022/04/06 07:00:21;;;;;;;24.25;4.30;;;7.90;99.90;;;;;;5065311;28;20126;-72
2022/04/06 07:02:47;;;;;;;19.88;4.20;;;7.90;99.90;;;;;;5064151;28;20554;-72
2022/04/06 07:05:13;;;;;;;14.50;3.78;;;7.90;99.90;;;;;;5057417;28;20040;-73
2022/04/06 07:08:08;;;;;;;17.55;3.97;;;7.90;99.90;;;;;;5075322;28;20086;-72
2022/04/06 07:10:33;;;;;;;20.10;4.03;;;7.90;99.90;;;;;;5055075;28;20103;-73
2022/04/06 07:12:59;;;;;;;16.27;3.65;;;7.90;99.90;;;;;;5065821;28;20044;-76
2022/04/06 07:15:26;;;;;;;19.83;4.35;;;7.90;99.90;;;;;;5047158;28;20143;-75
2022/04/06 07:17:53;;;;;;;15.48;3.30;;;7.90;99.90;;;;;;5054304;28;20056;-77
2022/04/06 07:20:19;;;;;;;14.40;3.20;;;7.80;99.90;;;;;;5061310;28;20067;-77
2022/04/06 07:22:45;;;;;;;24.50;4.03;;;7.90;99.90;;;;;;5076199;28;20044;-78
2022/04/06 07:25:10;;;;;;;25.67;3.88;;;7.90;99.90;;;;;;5055783;28;20097;-76
2022/04/06 07:27:37;;;;;;;12.88;3.97;;;7.90;99.90;;;;;;5083039;28;20129;-74
2022/04/06 07:30:05;;;;;;;17.52;3.85;;;7.90;99.90;;;;;;5070435;28;20051;-76
2022/04/06 07:32:32;;;;;;;18.50;4.38;;;7.90;99.90;;;;;;5065870;28;20052;-77
2022/04/06 07:34:58;;;;;;;20.23;4.20;;;7.90;99.90;;;;;;5075313;28;20512;-78
2022/04/06 07:37:24;;;;;;;17.73;3.80;;;7.90;99.90;;;;;;5046678;28;20046;-76
2022/04/06 07:39:49;;;;;;;25.23;4.82;;;8.00;99.90;;;;;;5072955;28;20965;-76
2022/04/06 07:42:15;;;;;;;13.45;3.63;;;7.90;99.90;;;;;;5070551;28;20036;-76
2022/04/06 07:44:41;;;;;;;21.33;4.45;;;7.90;99.90;;;;;;5080649;28;20040;-77
2022/04/06 07:47:06;;;;;;;16.05;4.05;;;8.00;99.90;;;;;;5077974;28;20044;-77
2022/04/06 07:49:32;;;;;;;10.15;3.45;;;8.00;99.90;;;;;;5074931;28;20044;-77
2022/04/06 07:51:58;;;;;;;18.95;4.05;;;7.90;99.90;;;;;;5046741;28;20055;-76
2022/04/06 07:54:23;;;;;;;19.70;4.15;;;7.90;99.90;;;;;;5044105;28;20120;-70
2022/04/06 07:56:49;;;;;;;18.23;4.18;;;7.90;99.90;;;;;;5062341;28;20044;-71
2022/04/06 07:59:15;;;;;;;17.67;4.05;;;8.00;99.90;;;;;;5061286;28;20551;-70
2022/04/06 08:01:40;;;;;;;21.80;4.60;;;8.00;99.90;;;;;;5069743;28;20040;-71
2022/04/06 08:04:06;;;;;;;17.67;3.78;;;8.10;99.90;;;;;;5044355;28;20071;-70
2022/04/06 08:06:32;;;;;;;19.67;4.13;;;8.10;99.90;;;;;;5054737;28;20082;-70
2022/04/06 08:08:59;;;;;;;17.30;3.22;;;8.10;99.90;;;;;;5077996;28;20063;-71
2022/04/06 08:11:25;;;;;;;16.02;3.80;;;8.10;99.90;;;;;;5054828;28;20036;-71
2022/04/06 08:13:51;;;;;;;16.95;4.15;;;8.10;99.90;;;;;;5075441;28;20396;-71
2022/04/06 08:16:17;;;;;;;18.02;3.33;;;8.10;99.90;;;;;;5092213;28;20108;-71
2022/04/06 08:18:42;;;;;;;17.55;4.47;;;8.10;99.90;;;;;;5077655;28;20036;-70
2022/04/06 08:21:09;;;;;;;16.10;3.92;;;8.10;99.90;;;;;;5075617;28;20039;-71
2022/04/06 08:23:35;;;;;;;16.00;4.00;;;8.10;99.90;;;;;;5051238;28;20044;-71
2022/04/06 08:26:01;;;;;;;16.95;4.70;;;8.10;99.90;;;;;;5079220;28;20083;-71
2022/04/06 08:28:27;;;;;;;15.40;4.05;;;8.10;99.90;;;;;;5070753;28;20047;-70
2022/04/06 08:30:53;;;;;;;22.45;3.95;;;8.10;99.90;;;;;;5070959;28;20032;-70
2022/04/06 08:33:19;;;;;;;18.85;4.45;;;8.10;99.90;;;;;;5080565;28;20567;-71
2022/04/06 08:35:45;;;;;;;24.60;4.82;;;8.10;99.90;;;;;;5058348;28;20159;-70
2022/04/06 08:38:12;;;;;;;17.25;4.47;;;8.10;99.90;;;;;;5061901;28;20123;-71
2022/04/06 08:40:41;;;;;;;22.13;4.82;;;8.60;99.90;;;;;;5078290;28;20798;-70
2022/04/06 08:43:08;;;;;;;19.00;4.75;;;8.30;99.90;;;;;;5054954;28;20067;-69
2022/04/06 08:45:39;;;;;;;16.45;4.15;;;8.10;99.90;;;;;;5057379;28;21268;-71
2022/04/06 08:48:09;;;;;;;16.40;3.70;;;8.20;99.90;;;;;;5056570;28;20060;-70
2022/04/06 08:50:37;;;;;;;12.73;3.60;;;8.20;99.90;;;;;;5062377;28;20397;-70
2022/04/06 08:53:04;;;;;;;19.25;3.90;;;8.20;99.90;;;;;;5071873;28;20098;-70
2022/04/06 08:55:32;;;;;;;18.15;4.13;;;8.30;99.90;;;;;;5075121;28;20052;-70
2022/04/06 08:57:58;;;;;;;23.27;3.67;;;8.30;99.90;;;;;;5084978;28;20398;-70
2022/04/06 09:00:25;;;;;;;13.98;3.83;;;8.30;99.90;;;;;;5083850;28;20129;-73
2022/04/06 09:02:52;;;;;;;17.92;3.42;;;8.30;99.90;;;;;;5061710;28;20067;-71
2022/04/06 09:05:23;;;;;;;20.63;3.70;;;8.40;99.90;;;;;;5082144;28;20051;-70
2022/04/06 09:07:51;;;;;;;19.92;3.13;;;8.50;99.90;;;;;;5080063;28;20048;-70
2022/04/06 09:10:37;;;;;;;17.83;3.28;;;8.50;99.90;;;;;;5075333;28;20393;-70
2022/04/06 09:13:09;;;;;;;13.43;3.45;;;8.60;99.90;;;;;;5078727;28;20450;-70
2022/04/06 09:15:36;;;;;;;12.82;3.45;;;8.70;99.90;;;;;;5066687;28;20480;-70
2022/04/06 09:18:02;;;;;;;13.50;3.38;;;8.80;99.90;;;;;;5084454;28;20119;-70
2022/04/06 09:20:29;;;;;;;15.73;3.55;;;8.80;99.90;;;;;;5076546;28;20620;-71
2022/04/06 09:22:55;;;;;;;14.80;3.80;;;8.90;99.90;;;;;;5080473;28;20040;-70
2022/04/06 09:25:21;;;;;;;16.75;4.63;;;9.00;99.90;;;;;;5051924;28;20429;-70
2022/04/06 09:27:47;;;;;;;13.75;4.15;;;9.10;99.90;;;;;;5062935;28;20144;-70
2022/04/06 09:30:13;;;;;;;12.98;3.60;;;9.10;99.90;;;;;;5049689;28;20044;-70
2022/04/06 09:32:42;;;;;;;12.27;3.47;;;9.20;99.90;;;;;;5062917;28;20102;-70
2022/04/06 09:35:29;;;;;;;15.35;3.97;;;9.20;99.90;;;;;;5048413;28;20072;-69
2022/04/06 09:38:12;;;;;;;13.90;3.75;;;9.20;99.90;;;;;;5066644;28;20064;-69
2022/04/06 09:40:39;;;;;;;14.40;3.90;;;9.30;99.90;;;;;;5065510;28;20097;-70
2022/04/06 09:43:06;;;;;;;15.10;4.18;;;9.40;99.90;;;;;;5066736;28;20105;-69
2022/04/06 09:48:17;;;;;;;14.20;3.42;;;9.50;99.90;;;;;;5083395;28;20056;-69
2022/04/06 09:50:56;;;;;;;13.57;4.05;;;9.50;99.90;;;;;;5065632;28;20105;-69
2022/04/06 09:53:26;;;;;;;17.55;4.57;;;9.50;99.90;;;;;;5066683;28;20052;-69
2022/04/06 09:55:55;;;;;;;14.85;3.83;;;9.50;99.90;;;;;;5066291;28;20052;-69
2022/04/06 09:58:22;;;;;;;17.85;4.25;;;9.50;99.90;;;;;;5049418;28;20051;-69
2022/04/06 10:00:48;;;;;;;19.05;4.13;;;9.50;99.90;;;;;;5061593;28;20040;-69
2022/04/06 10:03:15;;;;;;;23.55;4.65;;;9.50;99.90;;;;;;5060793;28;20040;-69
2022/04/06 10:05:42;;;;;;;23.65;4.55;;;9.50;99.90;;;;;;5064132;28;20389;-69
2022/04/06 10:08:10;;;;;;;15.05;3.83;;;9.50;99.90;;;;;;5065466;28;20155;-70
2022/04/06 10:10:38;;;;;;;19.55;4.40;;;9.50;99.90;;;;;;5064834;28;20032;-68
2022/04/06 10:13:06;;;;;;;17.50;4.05;;;9.50;99.90;;;;;;5065749;28;20048;-69
2022/04/06 10:15:32;;;;;;;18.50;3.83;;;9.50;99.90;;;;;;5064876;28;20113;-69
2022/04/06 10:17:59;;;;;;;20.88;4.43;;;9.50;99.90;;;;;;5040363;28;20068;-69
2022/04/06 10:20:44;;;;;;;19.45;5.45;;;9.50;99.90;;;;;;5063876;28;20071;-68
2022/04/06 10:23:12;;;;;;;18.75;4.00;;;9.50;99.90;;;;;;5081133;28;20051;-69
2022/04/06 10:25:50;;;;;;;17.15;3.72;;;9.60;99.90;;;;;;5092298;28;20251;-69
2022/04/06 10:28:19;;;;;;;23.52;4.20;;;9.50;99.90;;;;;;5065370;28;20493;-69
2022/04/06 10:31:15;;;;;;;23.77;4.10;;;9.50;99.90;;;;;;5063503;28;20050;-70
2022/04/06 10:33:41;;;;;;;20.02;4.80;;;9.50;99.90;;;;;;5074097;28;20071;-69
2022/04/06 10:36:20;;;;;;;25.17;5.50;;;9.50;99.90;;;;;;5080573;28;20492;-70
2022/04/06 10:39:04;;;;;;;16.17;3.97;;;9.90;99.90;;;;;;5061288;28;20993;-70
2022/04/06 10:41:30;;;;;;;26.10;4.93;;;9.60;99.90;;;;;;5080726;28;20032;-70
2022/04/06 10:43:56;;;;;;;18.55;4.25;;;9.50;99.90;;;;;;5074484;28;20139;-70
2022/04/06 10:46:35;;;;;;;18.77;4.35;;;9.50;99.90;;;;;;5070779;28;20556;-69
2022/04/06 10:49:09;;;;;;;21.52;4.45;;;9.50;99.90;;;;;;5071294;28;20046;-70
2022/04/06 10:51:37;;;;;;;18.48;5.35;;;9.50;99.90;;;;;;5081873;28;20045;-70
2022/04/06 10:54:12;;;;;;;22.75;4.40;;;9.50;99.90;;;;;;5074614;28;20498;-70
2022/04/06 10:56:57;;;;;;;21.98;4.28;;;9.50;99.90;;;;;;5075506;28;20044;-69
2022/04/06 10:59:25;;;;;;;26.55;4.80;;;9.50;99.90;;;;;;5079656;28;20468;-71
2022/04/06 11:02:18;;;;;;;26.27;5.28;;;9.60;99.90;;;;;;5077831;28;20079;-70
2022/04/06 11:04:46;;;;;;;23.55;4.15;;;9.70;99.90;;;;;;5063736;28;20056;-70
2022/04/06 11:07:15;;;;;;;22.77;4.50;;;10.10;99.90;;;;;;5073944;28;20061;-70
2022/04/06 11:12:32;;;;;;;29.17;4.72;;;9.70;99.90;;;;;;5064935;28;20045;-76
2022/04/06 11:15:01;;;;;;;27.05;5.30;;;9.70;99.90;;;;;;5079641;28;20500;-76
2022/04/06 11:17:34;;;;;;;22.65;4.50;;;9.60;99.90;;;;;;5079413;28;20044;-69
2022/04/06 11:20:19;;;;;;;28.75;5.90;;;9.60;99.90;;;;;;5068288;28;20412;-69
2022/04/06 11:22:53;;;;;;;25.48;4.90;;;9.70;99.90;;;;;;5045397;28;20047;-69
2022/04/06 11:25:22;;;;;;;22.17;4.30;;;9.70;99.90;;;;;;5055787;28;20036;-69
2022/04/06 11:27:49;;;;;;;24.98;5.10;;;9.80;99.90;;;;;;5061983;28;20461;-69
2022/04/06 11:30:20;;;;;;;25.80;4.63;;;9.80;99.90;;;;;;5072589;28;20126;-69
2022/04/06 11:32:57;;;;;;;31.33;6.10;;;10.00;99.90;;;;;;5079550;28;20055;-69
2022/04/06 11:35:34;;;;;;;26.48;4.95;;;10.10;99.90;;;;;;5077922;28;20043;-69
2022/04/06 11:38:02;;;;;;;25.23;5.20;;;10.10;99.90;;;;;;5051828;28;20906;-69
2022/04/06 11:40:29;;;;;;;26.83;4.93;;;10.20;99.90;;;;;;5053721;28;20193;-69
2022/04/06 11:42:57;;;;;;;20.13;3.90;;;10.30;99.90;;;;;;5055166;28;20444;-69
2022/04/06 11:45:26;;;;;;;24.20;4.15;;;10.40;99.90;;;;;;5035259;28;20504;-70
2022/04/06 11:47:53;;;;;;;22.80;3.97;;;10.60;99.90;;;;;;5054057;28;20041;-69
2022/04/06 11:50:19;;;;;;;23.98;4.50;;;10.70;99.90;;;;;;5050928;28;20394;-69
2022/04/06 11:52:45;;;;;;;21.02;3.80;;;10.80;99.90;;;;;;5056743;28;20364;-69
2022/04/06 11:55:11;;;;;;;24.38;4.63;;;11.00;99.90;;;;;;5063936;28;20585;-69
2022/04/06 11:57:42;;;;;;;17.60;3.53;;;11.10;99.90;;;;;;5053757;28;20053;-70
2022/04/06 12:00:11;;;;;;;19.02;3.45;;;11.30;99.90;;;;;;5053973;28;20056;-69
2022/04/06 12:02:51;;;;;;;17.90;3.42;;;11.40;99.90;;;;;;5049414;28;20120;-70
2022/04/06 12:05:18;;;;;;;16.33;4.00;;;11.60;99.90;;;;;;5057846;28;21509;-70
2022/04/06 12:07:45;;;;;;;17.20;3.45;;;11.50;99.90;;;;;;5053148;28;20114;-70
2022/04/06 12:10:11;;;;;;;16.38;3.60;;;11.60;99.90;;;;;;5054547;28;20417;-70
2022/04/06 12:12:38;;;;;;;14.13;2.95;;;11.50;99.90;;;;;;5053357;28;20044;-70
2022/04/06 12:15:06;;;;;;;19.13;3.15;;;11.50;99.90;;;;;;5037602;28;20091;-70
2022/04/06 12:17:38;;;;;;;17.95;3.47;;;11.40;99.90;;;;;;5063501;28;20398;-70
2022/04/06 12:20:25;;;;;;;12.90;2.53;;;11.40;99.90;;;;;;5056932;28;20082;-70
2022/04/06 12:23:04;;;;;;;14.80;3.08;;;11.30;99.90;;;;;;5058708;28;20075;-70
2022/04/06 12:25:34;;;;;;;15.52;3.38;;;11.30;99.90;;;;;;5054277;28;20041;-70
2022/04/06 12:28:08;;;;;;;18.67;3.20;;;11.40;99.90;;;;;;5054494;28;20044;-70
2022/04/06 12:30:34;;;;;;;15.93;3.30;;;11.60;99.90;;;;;;5073054;28;20415;-70
2022/04/06 12:33:00;;;;;;;18.40;3.30;;;11.80;99.90;;;;;;5056782;28;20041;-71
2022/04/06 12:35:25;;;;;;;17.65;2.92;;;11.90;99.90;;;;;;5058009;28;20475;-70
2022/04/06 12:37:51;;;;;;;14.48;2.90;;;11.90;99.90;;;;;;5040122;28;20052;-71
2022/04/06 12:40:23;;;;;;;13.23;3.00;;;11.90;99.90;;;;;;5056715;28;20515;-67
2022/04/06 12:42:49;;;;;;;;;;;11.80;99.90;;;;;;5043418;28;20044;-70
2022/04/06 12:45:15;;;;;;;16.45;3.17;;;11.70;99.90;;;;;;5067556;28;19925;-69
2022/04/06 12:47:41;;;;;;;20.70;3.35;;;11.70;99.90;;;;;;5064204;28;20036;-71
2022/04/06 12:50:19;;;;;;;19.13;3.00;;;11.60;99.90;;;;;;5058577;28;20033;-70
2022/04/06 12:52:47;;;;;;;21.90;3.60;;;11.70;99.90;;;;;;5054019;28;20044;-69
2022/04/06 12:55:15;;;;;;;17.98;2.88;;;11.50;99.90;;;;;;5037251;28;20040;-69